createdAt,value
2019-01-09T00:01:35.603Z,108.53
2019-01-09T00:04:16.501Z,103.70
2019-01-09T00:06:57.903Z,110.20
2019-01-09T00:09:39.320Z,107.40
2019-01-09T00:12:20.607Z,109.10
2019-01-09T00:15:00.236Z,103.27
2019-01-09T00:17:48.991Z,103.57
2019-01-09T00:20:29.761Z,100.53
2019-01-09T00:23:10.329Z,106.07
2019-01-09T00:25:49.803Z,107.43
2019-01-09T00:31:44.091Z,110.47
2019-01-09T00:34:25.168Z,108.77
2019-01-09T00:37:06.405Z,107.03
2019-01-09T00:39:47.995Z,114.00
2019-01-09T00:42:28.957Z,105.00
2019-01-09T00:45:10.387Z,105.80
2019-01-09T00:47:51.840Z,105.83
2019-01-09T00:50:33.519Z,102.03
2019-01-09T00:53:15.002Z,110.03
2019-01-09T00:55:56.204Z,108.37
2019-01-09T00:58:36.871Z,108.77
2019-01-09T01:01:18.384Z,102.20
2019-01-09T01:03:59.505Z,101.53
2019-01-09T01:06:40.172Z,104.97
2019-01-09T01:09:39.842Z,100.70
2019-01-09T01:12:47.526Z,114.80
2019-01-09T01:15:28.852Z,101.37
2019-01-09T01:18:09.968Z,100.83
2019-01-09T01:20:51.295Z,106.13
2019-01-09T01:23:32.654Z,107.40
2019-01-09T01:26:13.579Z,99.63
2019-01-09T01:28:54.929Z,106.33
2019-01-09T01:31:36.041Z,104.57
2019-01-09T01:34:17.641Z,102.43
2019-01-09T01:36:58.914Z,107.73
2019-01-09T01:39:40.455Z,106.63
2019-01-09T01:42:21.288Z,100.07
2019-01-09T01:45:02.225Z,108.13
2019-01-09T01:47:43.859Z,106.47
2019-01-09T01:53:28.900Z,107.23
2019-01-09T01:56:09.932Z,95.53
2019-01-09T01:58:51.257Z,106.80
2019-01-09T02:01:32.651Z,100.77
2019-01-09T02:04:13.949Z,104.70
2019-01-09T02:06:55.307Z,100.70
2019-01-09T02:09:36.323Z,97.50
2019-01-09T02:12:17.710Z,100.50
2019-01-09T02:14:58.309Z,92.03
2019-01-09T02:17:39.169Z,93.07
2019-01-09T02:20:19.823Z,88.70
2019-01-09T02:23:01.267Z,93.83
2019-01-09T02:25:42.722Z,92.27
2019-01-09T02:28:24.076Z,90.50
2019-01-09T02:31:05.437Z,99.80
2019-01-09T02:33:46.885Z,96.57
2019-01-09T02:36:28.223Z,93.33
2019-01-09T02:39:09.089Z,88.80
2019-01-09T02:41:50.064Z,91.37
2019-01-09T02:44:32.396Z,87.13
2019-01-09T02:47:13.453Z,91.83
2019-01-09T02:49:54.098Z,91.37
2019-01-09T02:52:33.901Z,92.87
2019-01-09T02:55:22.447Z,84.07
2019-01-09T02:58:03.885Z,74.07
2019-01-09T03:00:43.539Z,90.60
2019-01-09T03:03:25.161Z,89.47
2019-01-09T03:06:04.653Z,86.33
2019-01-09T03:08:46.108Z,92.03
2019-01-09T03:11:27.016Z,88.10
2019-01-09T03:14:08.241Z,80.00
2019-01-09T03:16:49.601Z,92.57
2019-01-09T03:19:30.252Z,94.97
2019-01-09T03:22:11.367Z,82.57
2019-01-09T03:24:51.374Z,82.37
2019-01-09T03:27:39.891Z,73.93
2019-01-09T03:30:20.857Z,75.73
2019-01-09T03:33:01.685Z,79.97
2019-01-09T03:35:42.811Z,70.00
2019-01-09T03:38:24.306Z,74.50
2019-01-09T03:41:05.354Z,66.07
2019-01-09T03:43:44.997Z,61.83
2019-01-09T03:46:25.638Z,63.17
2019-01-09T03:49:07.168Z,68.33
2019-01-09T03:51:48.429Z,68.53
2019-01-09T03:54:29.504Z,69.87
2019-01-09T03:57:10.417Z,73.37
2019-01-09T03:59:51.820Z,72.97
2019-01-09T04:02:33.264Z,71.30
2019-01-09T04:05:14.865Z,72.03
2019-01-09T04:07:54.717Z,66.37
2019-01-09T04:10:43.275Z,70.17
2019-01-09T04:13:24.500Z,66.03
2019-01-09T04:16:05.848Z,68.63
2019-01-09T04:18:46.568Z,68.33
2019-01-09T04:21:26.107Z,65.23
2019-01-09T04:24:06.732Z,66.80
2019-01-09T04:26:47.852Z,70.57
2019-01-09T04:29:29.390Z,77.07
2019-01-09T04:32:10.776Z,79.50
2019-01-09T04:34:51.494Z,77.30
2019-01-09T04:37:31.175Z,77.87
2019-01-09T04:40:10.733Z,73.90
2019-01-09T04:45:59.573Z,71.13
2019-01-09T04:48:40.648Z,78.03
2019-01-09T04:51:21.664Z,78.10
2019-01-09T04:54:03.048Z,76.40
2019-01-09T04:56:43.731Z,81.80
2019-01-09T04:59:24.420Z,82.60
2019-01-09T05:02:05.447Z,83.40
2019-01-09T05:04:49.284Z,73.03
2019-01-09T05:07:29.688Z,79.83
2019-01-09T05:10:11.034Z,71.50
2019-01-09T05:12:52.318Z,73.07
2019-01-09T05:15:33.793Z,79.50
2019-01-09T05:18:14.859Z,77.63
2019-01-09T05:20:56.171Z,77.40
2019-01-09T05:23:37.145Z,80.70
2019-01-09T05:26:18.317Z,84.03
2019-01-09T05:28:58.983Z,78.67
2019-01-09T05:31:39.059Z,85.00
2019-01-09T05:34:20.159Z,82.40
2019-01-09T05:36:59.691Z,80.53
2019-01-09T05:39:40.854Z,87.90
2019-01-09T05:42:22.673Z,81.80
2019-01-09T05:45:03.701Z,82.63
2019-01-09T05:47:43.252Z,86.33
2019-01-09T05:50:24.085Z,91.13
2019-01-09T05:53:05.595Z,82.30
2019-01-09T05:55:45.204Z,90.70
2019-01-09T06:01:33.786Z,93.63
2019-01-09T06:04:13.431Z,95.60
2019-01-09T06:06:54.751Z,88.60
2019-01-09T06:09:35.489Z,92.70
2019-01-09T06:12:15.021Z,101.33
2019-01-09T06:18:04.900Z,93.20
2019-01-09T06:20:45.589Z,103.73
2019-01-09T06:23:26.643Z,92.57
2019-01-09T06:26:07.924Z,94.30
2019-01-09T06:28:48.831Z,97.53
2019-01-09T06:31:28.397Z,90.23
2019-01-09T06:34:09.533Z,100.20
2019-01-09T06:36:50.700Z,94.97
2019-01-09T06:39:31.605Z,94.90
2019-01-09T06:42:12.928Z,87.73
2019-01-09T06:44:54.379Z,90.70
2019-01-09T06:47:35.685Z,98.37
2019-01-09T06:50:17.104Z,92.57
2019-01-09T06:56:05.344Z,84.30
2019-01-09T06:58:46.947Z,54.80
2019-01-09T07:01:28.236Z,103.20
2019-01-09T07:04:09.535Z,99.23
2019-01-09T07:06:49.063Z,92.43
2019-01-09T07:12:37.989Z,83.43
2019-01-09T07:15:19.549Z,87.83
2019-01-09T07:18:00.771Z,87.03
2019-01-09T07:20:41.952Z,83.03
2019-01-09T07:23:22.705Z,92.73
2019-01-09T07:26:02.351Z,84.23
2019-01-09T07:28:43.469Z,90.33
2019-01-09T07:31:24.516Z,99.40
2019-01-09T07:34:06.136Z,97.40
2019-01-09T07:36:47.539Z,94.60
2019-01-09T07:39:28.427Z,106.47
2019-01-09T07:42:09.151Z,101.93
2019-01-09T07:44:50.104Z,105.73
2019-01-09T07:47:31.347Z,109.23
2019-01-09T07:50:10.929Z,116.83
2019-01-09T07:52:52.247Z,124.10
2019-01-09T07:55:33.404Z,123.90
2019-01-09T07:58:14.721Z,127.60
2019-01-09T08:00:55.472Z,112.23
2019-01-09T08:03:36.984Z,137.50
2019-01-09T08:06:18.572Z,142.57
2019-01-09T08:08:59.807Z,138.17
2019-01-09T08:11:40.901Z,134.83
2019-01-09T08:14:20.820Z,133.37
2019-01-09T08:17:01.472Z,142.23
2019-01-09T08:19:42.457Z,136.57
2019-01-09T08:22:23.227Z,132.53
2019-01-09T08:25:04.674Z,137.43
2019-01-09T08:27:45.608Z,142.40
2019-01-09T08:30:26.877Z,137.03
2019-01-09T08:33:07.801Z,135.00
2019-01-09T08:35:47.415Z,135.33
2019-01-09T08:38:26.999Z,140.27
2019-01-09T08:44:17.628Z,128.37
2019-01-09T08:46:59.152Z,137.83
2019-01-09T08:49:40.499Z,132.80
2019-01-09T08:52:24.981Z,139.57
2019-01-09T08:55:06.397Z,148.00
2019-01-09T08:57:46.044Z,109.63
2019-01-09T09:00:27.237Z,125.20
2019-01-09T09:03:08.017Z,136.60
2019-01-09T09:05:49.085Z,130.40
2019-01-09T09:08:29.839Z,125.63
2019-01-09T09:11:11.300Z,129.03
2019-01-09T09:13:52.925Z,131.13
2019-01-09T09:16:36.670Z,131.13
2019-01-09T09:19:17.917Z,96.10
2019-01-09T09:21:58.025Z,129.87
2019-01-09T09:24:46.554Z,128.50
2019-01-09T09:27:27.629Z,124.80
2019-01-09T09:30:08.409Z,129.23
2019-01-09T09:32:49.514Z,130.67
2019-01-09T09:35:30.848Z,130.73
2019-01-09T09:38:20.210Z,122.57
2019-01-09T09:40:55.413Z,129.77
2019-01-09T09:43:35.035Z,121.20
2019-01-09T09:46:23.688Z,132.87
2019-01-09T09:49:04.933Z,125.73
2019-01-09T09:51:45.829Z,128.20
2019-01-09T09:54:25.446Z,129.83
2019-01-09T09:57:14.017Z,123.30
2019-01-09T09:59:54.946Z,83.57
2019-01-09T10:02:36.467Z,110.90
2019-01-09T10:05:17.821Z,111.27
2019-01-09T10:07:59.264Z,123.73
2019-01-09T10:10:40.721Z,123.70
2019-01-09T10:13:21.577Z,125.10
2019-01-09T10:16:02.270Z,124.03
2019-01-09T10:18:42.892Z,128.30
2019-01-09T10:21:24.472Z,129.87
2019-01-09T10:24:05.169Z,122.10
2019-01-09T10:26:46.668Z,124.50
2019-01-09T10:29:27.957Z,136.53
2019-01-09T10:32:09.124Z,127.40
2019-01-09T10:34:49.810Z,129.87
2019-01-09T10:37:31.364Z,141.20
2019-01-09T10:40:12.335Z,149.10
2019-01-09T10:42:53.771Z,154.00
2019-01-09T10:45:34.760Z,142.17
2019-01-09T10:48:17.106Z,142.27
2019-01-09T10:50:58.169Z,144.13
2019-01-09T10:56:44.774Z,150.70
2019-01-09T10:59:26.810Z,156.27
2019-01-09T11:02:07.532Z,137.53
2019-01-09T11:04:48.891Z,159.03
2019-01-09T11:07:29.121Z,156.07
2019-01-09T11:13:23.813Z,165.40
2019-01-09T11:16:04.836Z,148.77
2019-01-09T11:18:46.344Z,149.60
2019-01-09T11:21:27.128Z,154.87
2019-01-09T11:24:08.613Z,143.40
2019-01-09T11:26:50.100Z,155.70
2019-01-09T11:29:31.627Z,149.03
2019-01-09T11:32:12.355Z,153.30
2019-01-09T11:34:53.808Z,155.33
2019-01-09T11:37:35.226Z,145.90
2019-01-09T11:40:16.812Z,152.73
2019-01-09T11:42:57.520Z,143.73
2019-01-09T11:45:38.119Z,152.27
2019-01-09T11:48:17.639Z,152.33
2019-01-09T11:50:58.996Z,151.60
2019-01-09T11:53:40.281Z,159.97
2019-01-09T11:56:21.528Z,173.63
2019-01-09T11:59:02.816Z,158.30
2019-01-09T12:01:44.729Z,166.20
2019-01-09T12:04:25.908Z,187.23
2019-01-09T12:07:05.519Z,188.27
2019-01-09T12:09:46.252Z,180.33
2019-01-09T12:12:27.476Z,176.83
2019-01-09T12:15:09.084Z,173.00
2019-01-09T12:17:50.604Z,172.85
2019-01-09T12:20:31.283Z,154.67
2019-01-09T12:23:12.815Z,150.97
2019-01-09T12:25:54.235Z,154.47
2019-01-09T12:28:35.396Z,170.92
2019-01-09T12:31:16.106Z,165.20
2019-01-09T12:33:57.581Z,171.40
2019-01-09T12:36:38.711Z,165.73
2019-01-09T12:39:19.520Z,174.23
2019-01-09T12:42:01.031Z,167.17
2019-01-09T12:44:41.052Z,155.90
2019-01-09T12:50:35.309Z,158.17
2019-01-09T12:53:14.891Z,151.50
2019-01-09T12:55:54.573Z,156.23
2019-01-09T12:58:43.077Z,149.30
2019-01-09T13:01:23.921Z,143.93
2019-01-09T13:04:04.961Z,143.83
2019-01-09T13:06:45.732Z,145.17
2019-01-09T13:09:27.038Z,147.00
2019-01-09T13:12:08.671Z,135.57
2019-01-09T13:14:47.062Z,138.83
2019-01-09T13:17:27.802Z,127.33
2019-01-09T13:20:09.080Z,123.77
2019-01-09T13:22:49.925Z,123.80
2019-01-09T13:25:31.402Z,135.13
2019-01-09T13:28:12.121Z,134.93
2019-01-09T13:30:53.413Z,122.50
2019-01-09T13:33:35.337Z,123.50
2019-01-09T13:36:16.431Z,124.93
2019-01-09T13:38:57.112Z,128.30
2019-01-09T13:41:38.761Z,123.57
2019-01-09T13:44:18.368Z,129.53
2019-01-09T13:46:59.845Z,116.13
2019-01-09T13:49:41.319Z,111.00
2019-01-09T13:52:22.931Z,109.30
2019-01-09T13:55:04.441Z,109.07
2019-01-09T13:57:45.072Z,106.33
2019-01-09T14:00:25.807Z,81.27
2019-01-09T14:03:07.532Z,101.93
2019-01-09T15:02:27.897Z,100.57
2019-01-09T15:05:08.652Z,105.10
2019-01-09T15:07:48.580Z,104.67
2019-01-09T15:10:37.176Z,100.40
2019-01-09T15:13:18.104Z,108.87
2019-01-09T15:15:58.776Z,105.23
2019-01-09T15:18:40.374Z,111.33
2019-01-09T15:21:21.864Z,102.00
2019-01-09T15:24:08.415Z,114.80
2019-01-09T15:26:46.312Z,109.27
2019-01-09T15:29:27.387Z,104.10
2019-01-09T15:32:08.555Z,109.70
2019-01-09T15:34:49.800Z,100.53
2019-01-09T15:37:31.229Z,105.40
2019-01-09T15:40:12.431Z,108.13
2019-01-09T15:42:53.396Z,100.53
2019-01-09T15:45:34.601Z,99.93
2019-01-09T15:48:15.891Z,110.90
2019-01-09T15:50:56.775Z,109.40
2019-01-09T15:53:37.407Z,112.60
2019-01-09T15:56:18.905Z,110.10
2019-01-09T15:59:00.400Z,114.53
2019-01-09T16:01:41.360Z,112.27
2019-01-09T16:04:20.956Z,103.90
2019-01-09T16:10:00.823Z,97.63
2019-01-09T16:12:40.992Z,102.17
2019-01-09T16:15:19.616Z,103.50
2019-01-09T16:17:59.743Z,102.83
2019-01-09T16:20:39.999Z,102.63
2019-01-09T16:23:18.398Z,101.87
2019-01-09T16:25:59.865Z,105.23
2019-01-09T16:28:41.049Z,103.80
2019-01-09T16:37:19.295Z,98.77
2019-01-09T16:39:59.385Z,103.07
2019-01-09T16:42:40.127Z,107.70
2019-01-09T16:45:21.061Z,96.80
2019-01-09T16:48:02.159Z,100.47
2019-01-09T16:50:42.815Z,107.53
2019-01-09T16:53:23.751Z,100.13
2019-01-09T16:56:05.211Z,101.43
2019-01-09T16:58:46.675Z,99.77
2019-01-09T17:01:27.991Z,98.33
2019-01-09T17:07:07.573Z,108.03
2019-01-09T17:09:48.300Z,105.10
2019-01-09T17:12:29.469Z,107.90
2019-01-09T17:15:10.771Z,101.73
2019-01-09T17:17:51.857Z,101.30
2019-01-09T17:20:33.271Z,100.73
2019-01-09T17:23:14.143Z,102.80
2019-01-09T17:25:54.230Z,102.10
2019-01-09T17:28:34.980Z,100.50
2019-01-09T17:31:16.128Z,100.30
2019-01-09T17:33:57.080Z,100.03
2019-01-09T17:36:38.532Z,101.20
2019-01-09T17:39:19.617Z,104.17
2019-01-09T17:42:00.750Z,101.33
2019-01-09T17:44:42.178Z,105.87
2019-01-09T17:47:23.516Z,96.77
2019-01-09T17:50:04.311Z,101.83
2019-01-09T17:52:45.916Z,104.87
2019-01-09T17:55:27.360Z,106.37
2019-01-09T17:58:08.839Z,108.30
2019-01-09T18:00:48.428Z,109.50
2019-01-09T18:03:37.020Z,110.37
2019-01-09T18:06:16.568Z,107.83
2019-01-09T18:12:13.695Z,112.37
2019-01-09T18:14:55.185Z,113.33
2019-01-09T18:17:36.601Z,115.90
2019-01-09T18:20:18.081Z,120.37
2019-01-09T18:22:58.959Z,120.27
2019-01-09T18:25:40.234Z,119.10
2019-01-09T18:28:21.364Z,114.43
2019-01-09T18:31:03.646Z,110.90
2019-01-09T18:33:45.061Z,117.77
2019-01-09T18:36:26.497Z,118.47
2019-01-09T18:39:07.373Z,121.97
2019-01-09T18:42:09.650Z,126.57
2019-01-09T18:44:50.466Z,118.63
2019-01-09T18:47:32.160Z,121.73
2019-01-09T18:50:13.115Z,120.57
2019-01-09T18:52:54.464Z,114.83
2019-01-09T18:58:18.180Z,116.20
2019-01-09T19:01:07.881Z,118.77
2019-01-09T19:03:49.592Z,123.47
2019-01-09T19:06:35.471Z,121.87
2019-01-09T19:09:13.128Z,131.67
2019-01-09T19:11:54.424Z,129.47
2019-01-09T19:14:35.598Z,122.13
2019-01-09T19:17:16.989Z,126.33
2019-01-09T19:19:58.459Z,123.97
2019-01-09T19:22:39.978Z,126.70
2019-01-09T19:25:21.429Z,132.90
2019-01-09T19:28:02.615Z,131.87
2019-01-09T19:30:44.010Z,131.20
2019-01-09T19:33:25.513Z,136.60
2019-01-09T19:36:07.156Z,134.17
2019-01-09T19:38:48.447Z,137.27
2019-01-09T19:41:29.927Z,138.53
2019-01-09T19:44:11.288Z,145.47
2019-01-09T19:46:52.625Z,143.60
2019-01-09T19:49:33.679Z,135.73
2019-01-09T19:52:14.376Z,146.20
2019-01-09T19:54:55.059Z,145.40
2019-01-09T19:57:36.021Z,141.07
2019-01-09T20:00:16.988Z,140.67
2019-01-09T20:02:58.397Z,143.30
2019-01-09T20:05:39.363Z,149.73
2019-01-09T20:08:20.581Z,154.97
2019-01-09T20:11:01.562Z,150.77
2019-01-09T20:13:42.664Z,144.07
2019-01-09T20:16:23.802Z,148.60
2019-01-09T20:19:05.360Z,150.00
2019-01-09T20:21:46.389Z,154.37
2019-01-09T20:24:28.083Z,145.97
2019-01-09T20:27:08.764Z,156.90
2019-01-09T20:29:50.111Z,147.37
2019-01-09T20:32:31.743Z,142.93
2019-01-09T20:35:12.917Z,136.30
2019-01-09T20:46:47.899Z,148.57
2019-01-09T20:49:28.143Z,150.33
2019-01-09T20:52:07.674Z,154.93
2019-01-09T20:54:46.492Z,138.37
